createdAt,value
2019-03-24T00:01:41.078Z,11.30
2019-03-24T00:04:06.784Z,11.30
2019-03-24T00:06:35.452Z,11.40
2019-03-24T00:09:06.323Z,11.30
2019-03-24T00:11:34.978Z,11.30
2019-03-24T00:14:03.655Z,11.20
2019-03-24T00:16:32.320Z,11.10
2019-03-24T00:19:01.002Z,11.10
2019-03-24T00:21:29.660Z,11.10
2019-03-24T00:23:58.329Z,11.10
2019-03-24T00:26:26.985Z,11.00
2019-03-24T00:28:55.716Z,11.00
2019-03-24T00:31:24.369Z,11.00
2019-03-24T00:33:53.061Z,11.00
2019-03-24T00:36:21.793Z,11.00
2019-03-24T00:38:50.519Z,10.90
2019-03-24T00:41:19.180Z,10.90
2019-03-24T00:43:47.859Z,10.90
2019-03-24T00:46:16.696Z,10.80
2019-03-24T00:48:45.369Z,10.80
2019-03-24T00:51:14.030Z,10.80
2019-03-24T00:53:42.690Z,10.80
2019-03-24T00:56:11.382Z,10.90
2019-03-24T00:58:40.036Z,10.80
2019-03-24T01:01:08.712Z,10.80
2019-03-24T01:03:37.366Z,10.80
2019-03-24T01:06:06.060Z,10.80
2019-03-24T01:08:34.799Z,10.70
2019-03-24T01:11:03.546Z,10.70
2019-03-24T01:13:32.201Z,10.70
2019-03-24T01:16:00.883Z,10.60
2019-03-24T01:18:29.529Z,10.60
2019-03-24T01:20:58.201Z,10.60
2019-03-24T01:23:26.867Z,10.50
2019-03-24T01:25:55.575Z,10.50
2019-03-24T01:28:24.244Z,10.50
2019-03-24T01:30:52.931Z,10.50
2019-03-24T01:33:21.606Z,10.40
2019-03-24T01:35:50.299Z,10.40
2019-03-24T01:38:19.869Z,10.30
2019-03-24T01:40:48.551Z,10.30
2019-03-24T01:43:17.205Z,10.30
2019-03-24T01:45:45.875Z,10.30
2019-03-24T01:48:14.559Z,10.20
2019-03-24T01:50:43.240Z,10.20
2019-03-24T01:53:11.901Z,10.20
2019-03-24T01:55:40.571Z,10.20
2019-03-24T01:58:09.228Z,10.20
2019-03-24T02:00:37.969Z,10.10
2019-03-24T02:03:06.622Z,10.10
2019-03-24T02:05:35.291Z,10.00
2019-03-24T02:08:03.964Z,10.10
2019-03-24T02:10:32.624Z,10.00
2019-03-24T02:13:01.322Z,10.00
2019-03-24T02:15:30.000Z,10.00
2019-03-24T02:17:58.644Z,10.00
2019-03-24T02:20:27.297Z,9.90
2019-03-24T02:22:56.117Z,9.90
2019-03-24T02:25:24.777Z,9.90
2019-03-24T02:27:53.472Z,10.00
2019-03-24T02:30:22.126Z,9.90
2019-03-24T02:32:50.812Z,9.90
2019-03-24T02:35:19.469Z,9.90
2019-03-24T02:37:48.182Z,9.90
2019-03-24T02:40:16.841Z,9.90
2019-03-24T02:42:45.503Z,9.90
2019-03-24T02:45:14.223Z,9.90
2019-03-24T02:47:42.894Z,9.90
2019-03-24T02:50:11.724Z,9.90
2019-03-24T02:52:40.404Z,9.80
2019-03-24T02:55:10.292Z,9.70
2019-03-24T02:57:38.971Z,9.70
2019-03-24T03:00:08.982Z,9.80
2019-03-24T03:02:37.643Z,9.70
2019-03-24T03:05:07.944Z,9.60
2019-03-24T03:07:36.600Z,9.60
2019-03-24T03:10:09.592Z,9.50
2019-03-24T03:12:38.265Z,9.50
2019-03-24T03:15:08.193Z,9.40
2019-03-24T03:17:36.856Z,9.30
2019-03-24T03:20:07.076Z,9.30
2019-03-24T03:22:35.773Z,9.30
2019-03-24T03:25:09.027Z,9.20
2019-03-24T03:27:37.702Z,9.20
2019-03-24T03:30:09.744Z,9.20
2019-03-24T03:32:38.616Z,9.20
2019-03-24T03:35:08.146Z,9.20
2019-03-24T03:37:36.833Z,9.20
2019-03-24T03:40:08.735Z,9.20
2019-03-24T03:42:39.134Z,9.10
2019-03-24T03:45:10.624Z,9.10
2019-03-24T03:47:39.826Z,9.10
2019-03-24T03:50:08.920Z,9.00
2019-03-24T03:52:37.576Z,9.00
2019-03-24T03:55:06.791Z,8.90
2019-03-24T03:57:35.451Z,8.90
2019-03-24T04:00:08.323Z,8.90
2019-03-24T04:02:36.994Z,8.90
2019-03-24T04:05:06.811Z,8.90
2019-03-24T04:07:35.478Z,8.90
2019-03-24T04:10:04.771Z,8.90
2019-03-24T04:12:33.435Z,8.90
2019-03-24T04:15:02.073Z,8.90
2019-03-24T04:17:30.822Z,8.90
2019-03-24T04:20:00.568Z,8.80
2019-03-24T04:22:29.547Z,8.80
2019-03-24T04:24:58.193Z,8.70
2019-03-24T04:27:26.866Z,8.70
2019-03-24T04:29:55.540Z,8.70
2019-03-24T04:32:24.200Z,8.70
2019-03-24T04:34:52.849Z,8.70
2019-03-24T04:37:21.518Z,8.70
2019-03-24T04:39:50.153Z,8.60
2019-03-24T04:42:18.830Z,8.50
2019-03-24T04:44:47.482Z,8.50
2019-03-24T04:47:16.934Z,8.50
2019-03-24T04:49:45.673Z,8.60
2019-03-24T04:52:14.341Z,8.60
2019-03-24T04:54:42.993Z,8.60
2019-03-24T04:57:11.654Z,8.60
2019-03-24T04:59:40.306Z,8.60
2019-03-24T05:02:08.983Z,8.60
2019-03-24T05:04:37.625Z,8.60
2019-03-24T05:07:06.297Z,8.60
2019-03-24T05:09:34.946Z,8.60
2019-03-24T05:12:03.599Z,8.60
2019-03-24T05:14:32.252Z,8.60
2019-03-24T05:17:00.898Z,8.60
2019-03-24T05:19:29.580Z,8.60
2019-03-24T05:21:58.293Z,8.70
2019-03-24T05:24:26.947Z,8.60
2019-03-24T05:26:55.663Z,8.70
2019-03-24T05:29:24.329Z,8.60
2019-03-24T05:31:52.975Z,8.60
2019-03-24T05:34:21.642Z,8.50
2019-03-24T05:36:50.337Z,8.50
2019-03-24T05:39:18.961Z,8.60
2019-03-24T05:41:47.611Z,8.60
2019-03-24T05:44:16.326Z,8.60
2019-03-24T05:46:44.971Z,8.70
2019-03-24T05:49:13.638Z,8.70
2019-03-24T05:51:42.294Z,8.80
2019-03-24T05:54:10.951Z,8.80
2019-03-24T05:56:39.595Z,8.80
2019-03-24T05:59:08.264Z,8.90
2019-03-24T06:01:36.915Z,8.80
2019-03-24T06:04:05.572Z,8.90
2019-03-24T06:06:34.222Z,8.90
2019-03-24T06:09:04.456Z,8.90
2019-03-24T06:11:33.171Z,9.00
2019-03-24T06:14:01.829Z,9.10
2019-03-24T06:16:30.510Z,9.10
2019-03-24T06:18:59.186Z,9.20
2019-03-24T06:21:27.883Z,9.30
2019-03-24T06:23:56.601Z,9.40
2019-03-24T06:26:25.251Z,9.40
2019-03-24T06:28:54.174Z,9.50
2019-03-24T06:31:22.816Z,9.60
2019-03-24T06:33:51.473Z,9.70
2019-03-24T06:36:20.139Z,9.70
2019-03-24T06:38:48.801Z,9.80
2019-03-24T06:41:17.489Z,9.90
2019-03-24T06:43:46.125Z,10.00
2019-03-24T06:46:15.104Z,10.10
2019-03-24T06:48:43.829Z,10.10
2019-03-24T06:51:12.489Z,10.20
2019-03-24T06:53:41.172Z,10.30
2019-03-24T06:56:09.827Z,10.50
2019-03-24T06:58:38.481Z,10.60
2019-03-24T07:01:07.155Z,10.80
2019-03-24T07:03:35.812Z,10.80
2019-03-24T07:06:04.490Z,10.90
2019-03-24T07:08:33.784Z,11.00
2019-03-24T07:11:02.471Z,11.10
2019-03-24T07:13:31.123Z,11.20
2019-03-24T07:16:01.113Z,11.40
2019-03-24T07:18:30.782Z,11.50
2019-03-24T07:20:59.599Z,11.60
2019-03-24T07:23:28.271Z,11.90
2019-03-24T07:25:56.946Z,12.10
2019-03-24T07:28:25.608Z,12.40
2019-03-24T07:30:54.289Z,12.60
2019-03-24T07:33:22.957Z,12.90
2019-03-24T07:35:51.630Z,13.30
2019-03-24T07:38:20.293Z,13.70
2019-03-24T07:40:48.967Z,14.10
2019-03-24T07:43:17.650Z,14.60
2019-03-24T07:45:46.315Z,15.00
2019-03-24T07:48:19.382Z,15.40
2019-03-24T07:50:45.759Z,15.70
2019-03-24T07:53:14.419Z,15.90
2019-03-24T07:55:43.111Z,16.10
2019-03-24T07:58:11.775Z,16.30
2019-03-24T08:00:40.554Z,16.40
2019-03-24T08:03:09.261Z,16.70
2019-03-24T08:05:38.023Z,17.00
2019-03-24T08:08:06.686Z,17.20
2019-03-24T08:10:35.366Z,17.50
2019-03-24T08:13:04.119Z,17.80
2019-03-24T08:15:32.806Z,18.00
2019-03-24T08:18:01.488Z,18.30
2019-03-24T08:20:30.150Z,18.50
2019-03-24T08:22:58.820Z,18.70
2019-03-24T08:25:27.495Z,18.90
2019-03-24T08:27:56.150Z,19.00
2019-03-24T08:30:33.167Z,19.30
2019-03-24T08:33:01.998Z,19.50
2019-03-24T08:35:30.763Z,19.70
2019-03-24T08:37:59.503Z,19.90
2019-03-24T08:40:28.179Z,20.20
2019-03-24T08:42:56.836Z,20.40
2019-03-24T08:45:27.549Z,20.70
2019-03-24T08:47:57.767Z,21.00
2019-03-24T08:50:26.712Z,21.10
2019-03-24T08:52:56.363Z,21.30
2019-03-24T08:55:25.057Z,21.50
2019-03-24T08:57:53.711Z,21.00
2019-03-24T09:00:30.572Z,21.00
2019-03-24T09:02:52.913Z,20.90
2019-03-24T09:05:21.632Z,21.10
2019-03-24T09:07:50.309Z,21.30
2019-03-24T09:10:19.032Z,21.50
2019-03-24T09:12:47.715Z,21.70
2019-03-24T12:05:51.924Z,24.70
2019-03-24T12:08:20.606Z,24.30
2019-03-24T12:10:49.260Z,23.60
2019-03-24T12:13:17.947Z,23.30
2019-03-24T17:55:01.075Z,21.30
2019-03-24T18:18:43.538Z,23.10
2019-03-24T18:21:12.963Z,23.10
2019-03-24T18:23:42.418Z,23.30
2019-03-24T18:26:11.913Z,23.30
2019-03-24T18:28:43.430Z,23.40
2019-03-24T18:31:12.649Z,23.10
2019-03-24T18:36:51.920Z,23.20
2019-03-24T18:41:56.386Z,23.30
2019-03-24T18:47:02.465Z,21.30
2019-03-24T18:52:07.017Z,18.50
